Time;durP1;ratioP1;P1;durP2;ratioP2;P2;SDS_P1;SDS_P2;PMS_P1;PMS_P2;Temp;Humidity;BMP_temperature;BMP_pressure;BME280_temperature;BME280_humidity;BME280_pressure;Samples;Min_cycle;Max_cycle;Signal;HPM_P1;HPM_P2
2022/05/26 00:00:34;;;;;;;5.33;2.70;;;;;;;14.64;85.90;98565.28;4156270;28;20640;-89
2022/05/26 00:02:39;;;;;;;4.70;3.20;;;;;;;14.63;85.02;98568.84;4141566;28;20668;-89
2022/05/26 00:04:42;;;;;;;5.83;3.13;;;;;;;14.63;85.39;98568.03;4142794;28;20685;-89
2022/05/26 00:06:45;;;;;;;4.17;3.20;;;;;;;14.62;85.69;98575.03;4172035;28;20702;-89
2022/05/26 00:08:49;;;;;;;6.33;3.07;;;;;;;14.67;85.69;98572.94;4170454;28;20621;-89
2022/05/26 00:10:52;;;;;;;4.27;3.30;;;;;;;14.67;85.42;98566.81;4141313;28;20695;-89
2022/05/26 00:12:55;;;;;;;3.57;3.20;;;;;;;14.67;85.35;98564.19;4174201;28;20662;-89
2022/05/26 00:14:58;;;;;;;3.80;2.60;;;;;;;14.72;84.35;98581.28;4155383;28;20660;-89
2022/05/26 00:17:02;;;;;;;5.00;3.10;;;;;;;14.72;84.45;98576.03;4159379;28;20643;-88
2022/05/26 00:19:06;;;;;;;3.93;3.00;;;;;;;14.72;84.87;98578.66;4171631;28;20638;-88
2022/05/26 00:21:10;;;;;;;4.43;3.33;;;;;;;14.67;85.71;98572.06;4188408;28;20661;-88
2022/05/26 00:23:13;;;;;;;3.73;3.03;;;;;;;14.70;85.28;98588.44;4174898;28;20709;-88
2022/05/26 00:25:16;;;;;;;5.20;3.03;;;;;;;14.72;85.05;98590.97;4172114;28;20681;-89
2022/05/26 00:27:20;;;;;;;6.60;2.63;;;;;;;14.74;85.58;98589.03;4160098;28;20750;-89
2022/05/26 00:29:23;;;;;;;4.40;2.90;;;;;;;14.74;85.93;98589.03;4171557;28;20621;-88
2022/05/26 00:31:26;;;;;;;4.23;3.10;;;;;;;14.74;85.24;98595.13;4161514;28;21342;-89
2022/05/26 00:33:30;;;;;;;3.20;2.90;;;;;;;14.75;85.79;98588.09;4196344;28;21229;-88
2022/05/26 00:35:36;;;;;;;4.43;3.60;;;;;;;14.77;85.02;98588.81;4191380;28;21075;-89
2022/05/26 00:37:39;;;;;;;7.83;4.00;;;;;;;14.75;85.18;98583.66;4177997;28;20666;-89
2022/05/26 00:39:42;;;;;;;5.73;3.37;;;;;;;14.76;85.31;98584.50;4160391;28;20644;-89
2022/05/26 00:41:47;;;;;;;3.83;3.27;;;;;;;14.74;85.88;98589.88;4172593;28;20632;-89
2022/05/26 00:43:50;;;;;;;4.07;3.13;;;;;;;14.70;85.21;98591.06;4174840;28;20871;-89
2022/05/26 00:45:57;;;;;;;3.93;2.90;;;;;;;14.65;85.36;98587.13;4186917;28;20635;-89
2022/05/26 00:48:01;;;;;;;4.17;3.20;;;;;;;14.59;86.47;98586.75;4174896;28;20645;-88
2022/05/26 00:50:07;;;;;;;6.80;3.00;;;;;;;14.58;86.50;98585.06;4174988;28;20623;-88
2022/05/26 00:52:14;;;;;;;4.63;3.23;;;;;;;14.55;86.71;98585.31;4155387;28;20648;-88
2022/05/26 00:54:20;;;;;;;5.20;3.43;;;;;;;14.52;86.27;98583.75;4172534;28;20719;-88
2022/05/26 00:56:28;;;;;;;3.43;3.13;;;;;;;14.51;86.05;98582.09;4152447;28;20639;-88
2022/05/26 00:58:38;;;;;;;4.10;3.47;;;;;;;14.52;86.48;98582.91;4148157;28;20671;-88
2022/05/26 01:00:49;;;;;;;3.80;3.00;;;;;;;14.52;87.01;98578.50;4191032;28;20633;-88
2022/05/26 01:02:59;;;;;;;3.37;3.00;;;;;;;14.49;87.57;98580.53;4174487;28;20635;-89
2022/05/26 01:05:06;;;;;;;6.40;3.90;;;;;;;14.48;86.18;98584.09;4160779;28;20758;-88
2022/05/26 01:07:14;;;;;;;4.37;3.40;;;;;;;14.47;86.44;98579.81;4177788;28;20742;-88
2022/05/26 01:09:17;;;;;;;4.67;3.20;;;;;;;14.47;86.42;98577.19;4176464;28;20668;-89
2022/05/26 01:11:20;;;;;;;4.50;3.60;;;;;;;14.45;86.66;98576.44;4191567;28;20634;-88
2022/05/26 01:13:24;;;;;;;4.70;3.60;;;;;;;14.45;87.74;98577.31;4175023;28;21215;-88
2022/05/26 01:15:34;;;;;;;4.10;3.27;;;;;;;14.46;86.61;98578.13;4173102;28;20650;-88
2022/05/26 01:17:44;;;;;;;3.73;3.23;;;;;;;14.44;87.08;98578.25;4160358;28;20734;-88
2022/05/26 01:20:19;;;;;;;3.97;3.27;;;;;;;14.47;86.91;98574.56;4152809;28;20682;-89
2022/05/26 01:22:33;;;;;;;4.80;3.47;;;;;;;14.47;87.59;98582.44;4153463;28;20627;-88
2022/05/26 01:25:00;;;;;;;5.27;3.27;;;;;;;14.46;86.77;98578.13;4137555;28;20693;-88
2022/05/26 01:27:27;;;;;;;4.30;3.03;;;;;;;14.46;86.72;98578.13;4158028;28;21370;-88
2022/05/26 01:30:06;;;;;;;6.73;3.40;;;;;;;14.45;86.29;98571.19;4173796;28;21266;-88
2022/05/26 01:32:14;;;;;;;4.37;3.20;;;;;;;14.41;86.41;98575.84;4155361;28;20742;-88
2022/05/26 01:34:23;;;;;;;4.03;3.40;;;;;;;14.38;86.48;98575.25;4172371;28;20683;-88
2022/05/26 01:36:32;;;;;;;3.40;3.10;;;;;;;14.37;86.51;98573.56;4156585;28;20757;-88
2022/05/26 01:38:40;;;;;;;4.27;3.03;;;;;;;14.33;86.31;98566.91;4155562;28;21033;-88
2022/05/26 01:40:52;;;;;;;4.13;2.80;;;;;;;14.30;86.53;98565.34;4155939;28;20684;-88
2022/05/26 01:43:02;;;;;;;4.97;3.17;;;;;;;14.28;86.54;98569.03;4158539;28;20640;-88
2022/05/26 01:45:09;;;;;;;3.73;3.10;;;;;;;14.28;87.18;98576.91;4173778;28;21331;-89
2022/05/26 01:47:22;;;;;;;8.80;3.23;;;;;;;14.26;86.54;98566.50;4172752;28;21244;-89
2022/05/26 01:49:31;;;;;;;4.73;3.30;;;;;;;14.24;87.03;98567.59;4137186;28;20647;-88
2022/05/26 01:51:38;;;;;;;4.50;3.40;;;;;;;14.19;86.69;98564.47;4154479;28;20678;-88
2022/05/26 01:53:47;;;;;;;3.80;3.50;;;;;;;14.16;87.11;98564.69;4137430;28;20644;-90
2022/05/26 01:55:54;;;;;;;6.47;3.53;;;;;;;14.13;86.94;98564.91;4173981;28;20695;-90
2022/05/26 01:58:00;;;;;;;9.10;3.20;;;;;;;14.08;86.72;98566.22;4155462;28;20690;-91
2022/05/26 02:00:06;;;;;;;5.40;3.50;;;;;;;14.06;86.73;98563.72;4143792;28;20632;-91
2022/05/26 02:02:18;;;;;;;5.63;3.00;;;;;;;14.05;87.02;98564.66;4174857;28;20628;-91
2022/05/26 02:04:25;;;;;;;6.10;3.07;;;;;;;14.02;86.56;98571.91;4144145;28;20639;-92
2022/05/26 02:06:31;;;;;;;3.80;3.30;;;;;;;14.04;86.02;98564.75;4179769;28;20655;-92
2022/05/26 02:08:37;;;;;;;5.83;3.53;;;;;;;13.99;85.88;98572.94;4142803;28;21098;-92
2022/05/26 02:10:43;;;;;;;6.40;3.30;;;;;;;13.96;87.03;98573.19;4166197;28;20632;-92
2022/05/26 02:12:48;;;;;;;6.20;3.60;;;;;;;13.95;86.46;98576.78;4174572;28;20667;-92
2022/05/26 02:14:54;;;;;;;3.87;3.17;;;;;;;13.97;86.85;98580.09;4159608;28;20688;-91
2022/05/26 02:17:00;;;;;;;5.33;3.53;;;;;;;13.95;86.68;98571.53;4173227;28;20685;-92
2022/05/26 02:19:09;;;;;;;4.13;3.00;;;;;;;13.90;86.96;98578.88;4159227;28;20689;-91
2022/05/26 02:21:15;;;;;;;3.90;3.27;;;;;;;13.82;86.58;98575.16;4163412;28;20625;-91
2022/05/26 02:23:23;;;;;;;4.13;3.50;;;;;;;13.80;87.15;98582.28;4143496;28;20718;-92
2022/05/26 02:25:28;;;;;;;4.27;3.13;;;;;;;13.78;87.62;98574.53;4143241;28;20737;-92
2022/05/26 02:27:32;;;;;;;5.00;3.20;;;;;;;13.77;87.06;98575.50;4145505;28;20644;-91
2022/05/26 02:29:53;;;;;;;7.60;3.50;;;;;;;13.73;87.02;98575.84;4144435;28;20663;-91
2022/05/26 02:31:58;;;;;;;6.80;3.77;;;;;;;13.71;87.00;98578.56;4175269;28;20636;-92
2022/05/26 02:34:02;;;;;;;3.90;3.20;;;;;;;13.70;86.80;98576.06;4159029;28;20721;-92
2022/05/26 02:36:06;;;;;;;6.73;3.70;;;;;;;13.68;87.07;98578.78;4160025;28;20658;-91
2022/05/26 02:38:13;;;;;;;5.50;3.90;;;;;;;13.65;86.59;98581.63;4160002;28;21045;-91
2022/05/26 02:40:17;;;;;;;3.97;3.30;;;;;;;13.66;86.71;98587.72;4175583;28;20638;-92
2022/05/26 02:42:21;;;;;;;4.63;3.67;;;;;;;13.62;86.61;98586.28;4145037;28;20638;-92
2022/05/26 02:44:25;;;;;;;4.50;3.50;;;;;;;13.60;87.66;98589.94;4176797;28;20721;-92
2022/05/26 02:46:36;;;;;;;5.97;3.80;;;;;;;13.59;86.39;98585.63;4138808;28;20638;-92
2022/05/26 02:48:55;;;;;;;4.20;3.50;;;;;;;13.56;87.64;98580.63;4158388;28;20646;-92
2022/05/26 02:51:03;;;;;;;6.83;3.60;;;;;;;13.51;88.49;98583.56;4160738;28;20664;-92
2022/05/26 02:53:15;;;;;;;3.60;3.30;;;;;;;13.51;87.38;98580.94;4158244;28;20733;-92
2022/05/26 02:55:22;;;;;;;4.80;3.47;;;;;;;13.44;87.55;98587.59;4155925;28;21323;-91
2022/05/26 02:57:30;;;;;;;3.90;3.47;;;;;;;13.37;87.70;98588.97;4176994;28;20629;-91
2022/05/26 02:59:37;;;;;;;3.77;3.03;;;;;;;13.34;87.18;98583.94;4158352;28;20700;-91
2022/05/26 03:01:44;;;;;;;7.90;3.50;;;;;;;13.31;88.01;98578.94;4140409;28;20622;-92
2022/05/26 03:03:50;;;;;;;4.80;3.80;;;;;;;13.32;87.81;98590.22;4172130;28;20634;-92
2022/05/26 03:05:58;;;;;;;5.40;3.83;;;;;;;13.31;87.22;98583.34;4143179;28;20722;-91
2022/05/26 03:08:03;;;;;;;4.07;3.67;;;;;;;13.27;87.23;98587.94;4141724;28;20653;-91
2022/05/26 03:10:09;;;;;;;4.37;3.47;;;;;;;13.22;88.15;98578.75;4169728;28;20987;-91
2022/05/26 03:12:23;;;;;;;5.43;3.67;;;;;;;13.21;87.43;98577.94;4139792;28;21139;-92
2022/05/26 03:14:27;;;;;;;3.97;3.30;;;;;;;13.26;87.26;98590.66;4160476;28;20651;-91
2022/05/26 03:16:30;;;;;;;5.10;3.60;;;;;;;13.22;87.93;98584.00;4170611;28;20676;-91
2022/05/26 03:18:33;;;;;;;5.27;3.90;;;;;;;13.20;87.18;98586.72;4192046;28;20979;-91
2022/05/26 03:20:37;;;;;;;4.17;3.60;;;;;;;13.18;88.61;98589.56;4189715;28;20996;-90
2022/05/26 03:22:40;;;;;;;4.03;3.17;;;;;;;13.18;87.57;98582.53;4161372;28;20745;-91
2022/05/26 03:24:43;;;;;;;5.43;3.90;;;;;;;13.19;87.76;98582.41;4153768;28;20631;-91
2022/05/26 03:26:47;;;;;;;5.23;3.50;;;;;;;13.17;89.24;98582.63;4191794;28;20620;-92
2022/05/26 03:28:51;;;;;;;10.40;3.63;;;;;;;13.18;87.87;98593.00;4190727;28;20643;-92
2022/05/26 03:30:54;;;;;;;3.97;2.97;;;;;;;13.20;87.22;98591.13;4157383;28;20640;-91
2022/05/26 03:32:57;;;;;;;4.37;3.80;;;;;;;13.18;87.07;98586.94;4174444;28;20674;-91
2022/05/26 03:42:04;;;;;;;4.10;3.70;;;;;;;13.17;89.59;98601.81;4176781;28;20736;-92
2022/05/26 03:44:09;;;;;;;4.17;3.53;;;;;;;13.18;88.09;98599.09;4155379;28;20659;-91
2022/05/26 03:46:12;;;;;;;4.60;3.87;;;;;;;13.22;87.47;98599.72;4158903;28;21332;-91
2022/05/26 03:48:15;;;;;;;4.63;3.57;;;;;;;13.19;87.97;98600.75;4176045;28;20782;-92
2022/05/26 03:50:19;;;;;;;4.40;3.53;;;;;;;13.17;88.23;98600.97;4157616;28;21366;-91
2022/05/26 03:52:22;;;;;;;3.93;3.63;;;;;;;13.16;88.53;98604.56;4175075;28;20738;-92
2022/05/26 03:54:25;;;;;;;4.83;3.40;;;;;;;13.15;87.87;98603.69;4173388;28;20681;-92
2022/05/26 03:56:28;;;;;;;4.43;3.70;;;;;;;13.19;89.58;98605.16;4178796;28;20647;-92
2022/05/26 03:58:35;;;;;;;3.67;3.30;;;;;;;13.20;88.99;98612.91;4177084;28;20724;-92
2022/05/26 04:00:39;;;;;;;4.60;3.53;;;;;;;13.22;89.99;98610.19;4179067;28;20629;-91
2022/05/26 04:02:42;;;;;;;4.03;3.30;;;;;;;13.25;89.83;98613.41;4193792;28;21198;-92
2022/05/26 04:04:45;;;;;;;4.57;3.10;;;;;;;13.27;88.04;98611.50;4188776;28;20641;-90
2022/05/26 04:06:48;;;;;;;4.37;3.60;;;;;;;13.26;88.24;98614.25;4197473;28;20648;-90
2022/05/26 04:08:52;;;;;;;4.47;3.70;;;;;;;13.26;89.45;98609.00;4179392;28;20647;-90
2022/05/26 04:10:55;;;;;;;4.03;3.50;;;;;;;13.29;87.71;98616.66;4200943;28;20740;-90
2022/05/26 04:12:58;;;;;;;4.30;3.90;;;;;;;13.33;88.15;98623.34;4193409;28;20635;-91
2022/05/26 04:15:03;;;;;;;5.27;3.63;;;;;;;13.37;88.48;98627.44;4188036;28;20628;-92
2022/05/26 04:17:06;;;;;;;6.07;3.83;;;;;;;13.42;88.44;98628.78;4166210;28;20665;-92
2022/05/26 04:19:10;;;;;;;5.20;3.80;;;;;;;13.45;88.23;98630.34;4156174;28;20664;-92
2022/05/26 04:21:15;;;;;;;5.70;2.97;;;;;;;13.51;89.33;98637.78;4161104;28;20644;-91
2022/05/26 04:23:24;;;;;;;3.83;3.53;;;;;;;13.55;88.93;98644.50;4160468;28;20644;-92
2022/05/26 04:25:33;;;;;;;3.87;3.47;;;;;;;13.58;88.00;98647.72;4186813;28;21053;-92
2022/05/26 04:27:36;;;;;;;4.60;4.10;;;;;;;13.62;87.68;98645.69;4188628;28;20671;-92
2022/05/26 04:29:39;;;;;;;3.80;3.50;;;;;;;13.66;89.74;98648.81;4180038;28;21227;-92
2022/05/26 04:31:44;;;;;;;5.60;4.00;;;;;;;13.71;89.09;98646.72;4161698;28;20692;-91
2022/05/26 04:33:47;;;;;;;4.10;3.50;;;;;;;13.79;87.62;98649.63;4186479;28;20696;-92
2022/05/26 04:35:57;;;;;;;5.50;4.10;;;;;;;13.84;87.61;98647.50;4161826;28;20675;-92
2022/05/26 04:38:06;;;;;;;5.13;3.87;;;;;;;13.92;87.49;98649.56;4169002;28;20648;-92
2022/05/26 04:40:11;;;;;;;4.87;3.70;;;;;;;13.99;88.56;98653.44;4162172;28;20658;-92
2022/05/26 04:42:14;;;;;;;4.50;3.70;;;;;;;14.05;87.43;98651.22;4159072;28;20725;-92
2022/05/26 04:44:18;;;;;;;3.70;3.40;;;;;;;14.17;88.17;98663.44;4141513;28;20658;-91
2022/05/26 04:46:22;;;;;;;4.00;3.20;;;;;;;14.27;88.36;98660.03;4176257;28;20645;-91
2022/05/26 04:48:26;;;;;;;4.77;3.20;;;;;;;14.38;87.88;98659.25;4178741;28;20617;-92
2022/05/26 04:50:30;;;;;;;3.70;3.40;;;;;;;14.47;87.57;98663.81;4158429;28;20624;-92
2022/05/26 04:52:33;;;;;;;4.20;2.90;;;;;;;14.53;87.56;98665.97;4141184;28;20740;-92
2022/05/26 04:54:36;;;;;;;4.33;3.33;;;;;;;14.59;86.75;98666.34;4158763;28;20638;-91
2022/05/26 04:56:39;;;;;;;3.83;3.10;;;;;;;14.63;86.20;98662.56;4140569;28;20633;-92
2022/05/26 04:58:42;;;;;;;4.57;3.33;;;;;;;14.68;86.24;98671.72;4141516;28;20664;-91
2022/05/26 05:00:51;;;;;;;4.20;3.10;;;;;;;14.75;86.36;98667.69;4146160;28;20669;-91
2022/05/26 05:02:54;;;;;;;4.40;3.30;;;;;;;14.83;86.24;98661.88;4158228;28;20666;-92
2022/05/26 05:04:59;;;;;;;4.03;2.93;;;;;;;14.93;86.55;98668.94;4174788;28;20622;-92
2022/05/26 05:07:02;;;;;;;6.87;3.67;;;;;;;15.02;86.09;98672.63;4141602;28;20669;-91
2022/05/26 05:09:05;;;;;;;6.27;4.27;;;;;;;15.11;86.08;98684.13;4153244;28;20710;-92
2022/05/26 05:11:09;;;;;;;5.73;5.13;;;;;;;15.21;85.15;98679.00;4176154;28;21407;-92
2022/05/26 05:13:12;;;;;;;5.80;4.40;;;;;;;15.30;84.65;98689.63;4156239;28;20643;-90
2022/05/26 05:15:17;;;;;;;6.47;3.93;;;;;;;15.41;85.98;98683.56;4156336;28;20768;-92
2022/05/26 05:17:22;;;;;;;4.23;3.80;;;;;;;15.43;84.97;98686.91;4173588;28;20912;-92
2022/05/26 05:19:25;;;;;;;4.50;3.77;;;;;;;15.48;86.09;98688.22;4178564;28;20620;-92
2022/05/26 05:21:33;;;;;;;4.50;4.00;;;;;;;15.57;87.46;98695.38;4178544;28;20625;-92
2022/05/26 05:23:40;;;;;;;11.37;4.20;;;;;;;15.68;87.66;98700.63;4189403;28;21074;-92
2022/05/26 05:25:47;;;;;;;5.30;3.77;;;;;;;15.79;86.00;98688.31;4185107;28;20653;-92
2022/05/26 05:27:52;;;;;;;9.73;3.90;;;;;;;15.89;85.77;98697.16;4155523;28;20638;-92
2022/05/26 05:29:57;;;;;;;4.67;3.37;;;;;;;16.02;85.64;98700.47;4155680;28;20648;-92
2022/05/26 05:32:03;;;;;;;4.70;3.30;;;;;;;16.19;84.28;98702.56;4156515;28;20742;-93
2022/05/26 05:34:09;;;;;;;4.40;3.10;;;;;;;16.39;84.99;98701.81;4177132;28;21229;-93
2022/05/26 05:36:16;;;;;;;5.53;2.50;;;;;;;16.67;81.50;98709.94;4175840;28;20964;-92
2022/05/26 05:38:21;;;;;;;4.33;2.00;;;;;;;16.98;82.23;98709.91;4175561;28;20658;-93
2022/05/26 05:40:24;;;;;;;3.73;2.30;;;;;;;17.11;80.18;98713.19;4164730;28;21247;-93
2022/05/26 05:42:32;;;;;;;4.37;2.30;;;;;;;17.17;79.58;98715.28;4179388;28;21003;-93
2022/05/26 05:44:35;;;;;;;3.63;2.37;;;;;;;17.21;78.07;98714.91;4160706;28;20636;-92
2022/05/26 05:48:55;;;;;;;4.40;2.67;;;;;;;17.30;79.08;98715.97;4174238;28;20728;-92
2022/05/26 05:50:58;;;;;;;3.40;1.87;;;;;;;17.34;77.89;98718.19;4175587;28;20648;-92
2022/05/26 05:53:01;;;;;;;4.93;2.80;;;;;;;17.34;78.02;98714.75;4173923;28;21086;-91
2022/05/26 05:55:08;;;;;;;3.30;2.37;;;;;;;17.41;78.58;98726.41;4178370;28;21304;-94
2022/05/26 05:57:12;;;;;;;3.30;1.90;;;;;;;17.46;77.79;98726.88;4173328;28;20648;-94
2022/05/26 05:59:15;;;;;;;2.97;1.73;;;;;;;17.48;78.21;98731.03;4176561;28;20656;-94
2022/05/26 06:01:18;;;;;;;3.57;2.83;;;;;;;17.52;78.32;98733.28;4175724;28;20747;-93
2022/05/26 06:03:21;;;;;;;2.57;2.07;;;;;;;17.52;76.45;98732.47;4157775;28;20679;-93
2022/05/26 06:05:25;;;;;;;4.80;1.90;;;;;;;17.49;76.24;98740.63;4153504;28;20724;-93
2022/05/26 06:07:28;;;;;;;3.03;2.20;;;;;;;17.55;76.50;98740.94;4193493;28;20705;-92
2022/05/26 06:09:31;;;;;;;3.60;1.73;;;;;;;17.56;77.11;98742.63;4173778;28;20644;-93
2022/05/26 06:11:36;;;;;;;3.93;1.70;;;;;;;17.57;77.23;98735.53;4177467;28;20643;-93
2022/05/26 06:13:39;;;;;;;2.50;1.70;;;;;;;17.59;77.49;98739.72;4175255;28;20668;-93
2022/05/26 06:15:45;;;;;;;3.20;1.60;;;;;;;17.66;78.01;98740.84;4173473;28;20640;-93
2022/05/26 06:17:48;;;;;;;2.10;1.43;;;;;;;17.70;77.84;98741.44;4156432;28;21043;-93
2022/05/26 06:19:51;;;;;;;3.37;1.60;;;;;;;17.74;78.35;98751.59;4161410;28;20653;-93
2022/05/26 06:21:58;;;;;;;4.70;1.70;;;;;;;17.75;78.19;98750.59;4178766;28;20643;-93
2022/05/26 06:24:05;;;;;;;2.90;1.83;;;;;;;17.74;77.34;98751.59;4177579;28;21471;-93
2022/05/26 06:26:08;;;;;;;5.30;1.50;;;;;;;17.72;77.21;98752.69;4195689;28;20639;-93
2022/05/26 06:30:33;;;;;;;3.97;1.67;;;;;;;17.64;75.26;98745.41;4178697;28;20623;-93
2022/05/26 06:37:28;;;;;;;2.97;2.03;;;;;;;17.70;76.73;98755.44;4174302;28;20651;-93
2022/05/26 06:39:31;;;;;;;2.33;1.40;;;;;;;17.74;76.90;98751.59;4180363;28;21098;-93
2022/05/26 06:43:56;;;;;;;2.27;1.20;;;;;;;17.78;76.86;98763.53;4161023;28;20665;-93
2022/05/26 06:45:59;;;;;;;3.03;1.50;;;;;;;17.76;76.79;98759.38;4145640;28;21134;-93
2022/05/26 06:48:03;;;;;;;2.47;1.30;;;;;;;17.82;77.94;98766.75;4160316;28;20692;-93
2022/05/26 06:50:07;;;;;;;2.63;1.30;;;;;;;17.84;78.42;98760.38;4156317;28;20761;-93
2022/05/26 06:52:11;;;;;;;5.20;1.40;;;;;;;17.82;77.03;98762.31;4183395;28;20632;-93
2022/05/26 06:54:14;;;;;;;2.80;1.40;;;;;;;17.82;75.40;98764.94;4159475;28;20622;-90
2022/05/26 06:56:17;;;;;;;4.17;2.00;;;;;;;17.87;76.37;98773.28;4174688;28;20681;-91
2022/05/26 06:58:21;;;;;;;3.37;1.60;;;;;;;17.87;76.20;98768.03;4176385;28;20656;-93
2022/05/26 07:00:26;;;;;;;2.33;1.30;;;;;;;17.91;76.05;98772.06;4192465;28;20620;-92
2022/05/26 07:02:30;;;;;;;2.73;1.60;;;;;;;17.91;74.29;98777.34;4180720;28;20676;-96
2022/05/26 07:04:34;;;;;;;4.47;1.53;;;;;;;17.99;75.16;98783.63;4183879;28;20662;-94
2022/05/26 07:06:37;;;;;;;2.80;1.30;;;;;;;18.06;75.23;98786.59;4164040;28;21010;-92
2022/05/26 07:08:40;;;;;;;1.90;1.30;;;;;;;18.12;74.90;98786.06;4196302;28;20635;-96
2022/05/26 07:10:47;;;;;;;2.77;1.40;;;;;;;18.18;75.72;98793.47;4161319;28;20685;-90
2022/05/26 07:13:05;;;;;;;2.10;1.60;;;;;;;18.26;75.46;98793.63;4143690;28;21106;-90
2022/05/26 07:15:10;;;;;;;3.13;1.23;;;;;;;18.31;75.08;98791.41;4160079;28;20615;-95
2022/05/26 07:17:22;;;;;;;2.37;1.43;;;;;;;18.44;75.03;98800.75;4165913;28;20652;-93
2022/05/26 07:19:25;;;;;;;1.67;1.00;;;;;;;18.51;74.64;98800.09;4144319;28;20694;-90
2022/05/26 07:21:28;;;;;;;2.67;1.30;;;;;;;18.61;75.37;98805.38;4140238;28;21543;-94
2022/05/26 07:23:37;;;;;;;2.87;1.23;;;;;;;18.69;74.94;98806.38;4138512;28;20709;-90
2022/05/26 07:25:43;;;;;;;3.50;1.20;;;;;;;18.83;74.33;98802.50;4145186;28;21368;-91
2022/05/26 07:27:46;;;;;;;3.37;1.13;;;;;;;18.97;73.33;98808.19;4156840;28;20673;-92
2022/05/26 07:29:50;;;;;;;2.57;1.53;;;;;;;19.09;73.11;98802.69;4171739;28;20713;-90
2022/05/26 07:31:54;;;;;;;4.70;1.40;;;;;;;19.28;73.32;98801.81;4170858;28;20682;-94
2022/05/26 07:34:00;;;;;;;2.57;1.23;;;;;;;19.42;71.83;98805.72;4178904;28;20639;-88
2022/05/26 07:43:15;;;;;;;2.23;1.13;;;;;;;19.69;69.21;98808.41;4160109;28;20711;-89
2022/05/26 07:45:18;;;;;;;1.93;1.27;;;;;;;19.74;69.08;98806.19;4158783;28;20651;-91
2022/05/26 07:47:22;;;;;;;1.80;0.90;;;;;;;19.81;68.94;98807.28;4166366;28;21003;-91
2022/05/26 07:49:27;;;;;;;4.20;1.30;;;;;;;19.89;70.25;98816.22;4139582;28;20634;-91
2022/05/26 07:51:30;;;;;;;2.93;1.10;;;;;;;19.95;70.49;98817.41;4155486;28;20737;-89
2022/05/26 07:53:33;;;;;;;2.03;1.13;;;;;;;19.96;68.92;98816.44;4177276;28;20842;-89
2022/05/26 07:55:38;;;;;;;1.97;1.07;;;;;;;19.94;67.29;98815.78;4139574;28;20633;-90
2022/05/26 07:57:42;;;;;;;3.20;1.27;;;;;;;19.88;68.57;98813.69;4141625;28;20732;-88
2022/05/26 07:59:45;;;;;;;3.30;1.30;;;;;;;19.89;69.14;98810.91;4157387;28;20716;-89
2022/05/26 08:01:48;;;;;;;3.20;1.10;;;;;;;19.93;70.78;98816.75;4158341;28;20629;-87
2022/05/26 08:03:53;;;;;;;3.27;1.20;;;;;;;19.93;68.25;98822.03;4158530;28;20630;-90
2022/05/26 08:05:58;;;;;;;4.90;1.63;;;;;;;19.95;68.47;98830.66;4159125;28;20688;-91
2022/05/26 08:08:01;;;;;;;3.40;1.00;;;;;;;19.96;67.79;98830.53;4159091;28;20695;-90
2022/05/26 08:10:05;;;;;;;2.63;1.20;;;;;;;19.94;69.42;98829.00;4160126;28;20634;-89
2022/05/26 08:12:11;;;;;;;4.70;2.13;;;;;;;19.93;68.24;98833.47;4138808;28;20667;-90
2022/05/26 08:14:15;;;;;;;2.33;1.23;;;;;;;19.95;70.43;98831.53;4176588;28;21009;-91
2022/05/26 08:16:18;;;;;;;2.00;1.30;;;;;;;20.01;69.99;98822.16;4160886;28;21343;-88
2022/05/26 08:18:22;;;;;;;3.07;1.20;;;;;;;20.02;67.79;98827.28;4154859;28;21320;-90
2022/05/26 08:20:26;;;;;;;3.57;1.77;;;;;;;20.05;68.89;98826.19;4140741;28;20666;-89
2022/05/26 08:22:31;;;;;;;3.03;1.40;;;;;;;20.04;68.36;98833.31;4155091;28;20651;-89
2022/05/26 08:24:57;;;;;;;3.43;1.93;;;;;;;20.04;68.65;98843.03;4161196;28;21171;-87
2022/05/26 08:27:00;;;;;;;3.20;1.87;;;;;;;20.04;68.65;98840.41;4164733;28;20652;-88
2022/05/26 08:29:03;;;;;;;9.37;8.13;;;;;;;20.02;68.50;98845.00;4160495;28;20731;-87
2022/05/26 08:31:08;;;;;;;5.27;1.33;;;;;;;20.01;66.95;98840.69;4176016;28;20740;-88
2022/05/26 08:33:12;;;;;;;2.90;1.30;;;;;;;19.98;67.99;98840.97;4155883;28;20646;-88
2022/05/26 08:35:15;;;;;;;5.30;4.50;;;;;;;19.95;70.09;98841.25;4156149;28;21276;-88
2022/05/26 08:37:20;;;;;;;2.47;1.40;;;;;;;19.91;68.97;98840.72;4155140;28;20665;-88
2022/05/26 08:39:25;;;;;;;3.83;1.63;;;;;;;19.89;68.10;98840.03;4175300;28;20661;-89
2022/05/26 08:41:33;;;;;;;5.47;1.30;;;;;;;19.83;68.56;98842.41;4155773;28;21173;-87
2022/05/26 08:43:39;;;;;;;2.20;1.50;;;;;;;19.83;68.23;98847.69;4173413;28;20625;-87
2022/05/26 08:45:46;;;;;;;6.70;1.33;;;;;;;19.84;67.99;98849.34;4175456;28;20648;-88
2022/05/26 08:47:51;;;;;;;2.60;1.40;;;;;;;19.83;69.08;98845.06;4139131;28;20638;-89
2022/05/26 08:50:34;;;;;;;2.10;1.23;;;;;;;19.82;69.38;98843.38;4094899;28;21204;-90
2022/05/26 08:52:42;;;;;;;7.87;1.60;;;;;;;19.84;69.02;98849.34;4089310;28;20688;-89
2022/05/26 08:54:52;;;;;;;2.10;1.40;;;;;;;19.79;67.44;98850.78;4089176;28;20631;-88
2022/05/26 08:56:57;;;;;;;3.10;1.40;;;;;;;19.80;69.57;98852.44;4091353;28;20609;-87
2022/05/26 08:59:04;;;;;;;4.03;1.57;;;;;;;19.82;68.35;98859.25;4108414;28;21276;-87
2022/05/26 09:01:10;;;;;;;2.50;1.40;;;;;;;19.81;67.93;98856.75;4174598;28;20667;-86
2022/05/26 09:03:24;;;;;;;2.50;1.30;;;;;;;19.86;67.23;98866.00;4174126;28;20637;-86
2022/05/26 09:05:32;;;;;;;2.17;1.20;;;;;;;19.89;69.09;98852.44;4159944;28;20629;-87
2022/05/26 09:14:48;;;;;;;3.20;1.77;;;;;;;20.13;69.06;98861.59;4153138;28;20675;-88
2022/05/26 09:16:58;;;;;;;2.80;1.63;;;;;;;20.20;69.70;98867.13;4149108;28;20704;-89
2022/05/26 09:19:09;;;;;;;2.47;1.40;;;;;;;20.28;68.18;98864.56;4156621;28;20649;-87
2022/05/26 09:21:16;;;;;;;3.03;1.37;;;;;;;20.32;67.61;98858.00;4156486;28;20663;-85
2022/05/26 09:23:25;;;;;;;2.27;1.00;;;;;;;20.36;68.55;98863.72;4177253;28;21235;-86
2022/05/26 09:25:36;;;;;;;4.33;1.40;;;;;;;20.48;66.84;98874.97;4171055;28;20640;-85
2022/05/26 09:27:40;;;;;;;3.83;1.33;;;;;;;20.54;68.41;98867.25;4174051;28;20735;-85
2022/05/26 09:29:43;;;;;;;2.23;1.10;;;;;;;20.57;68.89;98874.91;4172238;28;20645;-90
2022/05/26 09:31:48;;;;;;;3.13;1.43;;;;;;;20.58;67.69;98871.28;4173464;28;20643;-90
2022/05/26 09:34:06;;;;;;;2.30;1.50;;;;;;;20.64;67.60;98864.53;4156903;28;21014;-89
2022/05/26 09:36:21;;;;;;;3.40;1.20;;;;;;;20.74;67.33;98865.38;4153140;28;21234;-91
2022/05/26 09:38:32;;;;;;;4.03;1.30;;;;;;;20.86;68.58;98872.97;4174349;28;20745;-91
2022/05/26 09:40:40;;;;;;;3.40;1.60;;;;;;;20.97;67.57;98872.75;4158603;28;20753;-88
2022/05/26 09:42:43;;;;;;;1.70;1.20;;;;;;;21.05;67.36;98878.13;4169754;28;20624;-87
2022/05/26 09:44:53;;;;;;;4.57;1.30;;;;;;;21.12;66.60;98880.03;4169566;28;20625;-87
2022/05/26 09:46:59;;;;;;;2.27;1.33;;;;;;;21.15;66.51;98884.22;4189150;28;20627;-87
2022/05/26 09:49:10;;;;;;;2.67;2.00;;;;;;;21.22;68.23;98885.28;4172097;28;20636;-87
2022/05/26 09:51:15;;;;;;;2.20;1.20;;;;;;;21.27;65.71;98886.47;4175960;28;20635;-87
2022/05/26 09:53:30;;;;;;;3.30;1.80;;;;;;;21.27;67.39;98892.66;4169961;28;20648;-87
2022/05/26 09:55:42;;;;;;;4.37;1.50;;;;;;;21.18;65.96;98887.38;4167411;28;20732;-87
2022/05/26 09:58:07;;;;;;;3.10;1.30;;;;;;;21.16;66.68;98891.19;4169006;28;20635;-87
2022/05/26 10:00:16;;;;;;;5.70;1.43;;;;;;;21.10;67.50;98897.94;4174500;28;21020;-87
2022/05/26 10:02:23;;;;;;;3.37;1.30;;;;;;;21.07;66.60;98892.09;4157933;28;21080;-87
2022/05/26 10:04:39;;;;;;;2.37;1.10;;;;;;;21.05;68.56;98889.59;4168709;28;20668;-87
2022/05/26 10:06:48;;;;;;;2.57;1.20;;;;;;;21.04;67.25;98890.56;4186013;28;20660;-87
2022/05/26 10:09:05;;;;;;;3.00;1.50;;;;;;;21.04;67.58;98882.59;4172775;28;20656;-87
2022/05/26 10:11:13;;;;;;;2.53;1.23;;;;;;;21.06;66.69;98887.75;4169428;28;20668;-86
2022/05/26 10:13:37;;;;;;;3.60;1.50;;;;;;;21.06;67.77;98890.41;4173932;28;21273;-87
2022/05/26 10:15:46;;;;;;;3.27;1.40;;;;;;;21.05;66.08;98889.59;4190614;28;20667;-86
2022/05/26 10:18:01;;;;;;;2.60;1.33;;;;;;;21.11;67.58;98891.66;4189591;28;20642;-87
2022/05/26 10:20:25;;;;;;;2.80;1.10;;;;;;;21.18;67.54;98892.69;4193296;28;20697;-87
2022/05/26 10:22:42;;;;;;;2.10;1.20;;;;;;;21.23;65.82;98892.25;4192488;28;20639;-87
2022/05/26 10:25:06;;;;;;;2.50;1.30;;;;;;;21.25;65.38;98891.13;4176078;28;20633;-87
2022/05/26 10:27:18;;;;;;;2.50;1.60;;;;;;;21.32;67.23;98886.88;4190997;28;20631;-87
2022/05/26 10:29:41;;;;;;;4.07;1.30;;;;;;;21.42;68.04;98899.09;4192528;28;20620;-87